createdAt,value
2018-04-11T00:01:52.640Z,75.77
2018-04-11T00:04:21.780Z,75.77
2018-04-11T00:06:50.887Z,77.20
2018-04-11T00:09:20.019Z,75.07
2018-04-11T00:11:49.159Z,75.70
2018-04-11T00:14:18.281Z,75.90
2018-04-11T00:16:47.412Z,77.83
2018-04-11T00:19:16.536Z,75.43
2018-04-11T00:21:45.709Z,78.60
2018-04-11T00:24:14.828Z,75.67
2018-04-11T00:26:43.968Z,76.83
2018-04-11T00:29:13.104Z,81.83
2018-04-11T00:31:42.229Z,81.53
2018-04-11T00:34:11.369Z,86.00
2018-04-11T00:36:40.500Z,80.87
2018-04-11T00:39:09.625Z,81.13
2018-04-11T00:41:38.735Z,80.90
2018-04-11T00:44:07.846Z,78.67
2018-04-11T00:46:36.960Z,78.60
2018-04-11T00:49:06.066Z,81.67
2018-04-11T00:51:35.207Z,79.10
2018-04-11T00:54:04.314Z,79.80
2018-04-11T00:56:34.320Z,78.27
2018-04-11T00:59:03.445Z,79.80
2018-04-11T01:01:32.597Z,79.70
2018-04-11T01:04:01.741Z,79.47
2018-04-11T01:06:30.916Z,80.80
2018-04-11T01:09:00.048Z,77.17
2018-04-11T01:11:29.190Z,77.00
2018-04-11T01:13:58.329Z,78.83
2018-04-11T01:16:27.473Z,78.80
2018-04-11T01:18:56.601Z,85.57
2018-04-11T01:21:25.739Z,82.47
2018-04-11T01:23:54.860Z,84.10
2018-04-11T01:26:24.004Z,85.07
2018-04-11T01:28:53.145Z,86.07
2018-04-11T01:31:22.262Z,84.17
2018-04-11T01:33:51.396Z,86.07
2018-04-11T01:36:20.545Z,83.40
2018-04-11T01:38:49.695Z,82.33
2018-04-11T01:41:18.805Z,81.43
2018-04-11T01:43:47.960Z,84.70
2018-04-11T01:46:17.072Z,85.37
2018-04-11T01:48:46.188Z,89.60
2018-04-11T01:51:15.332Z,86.43
2018-04-11T01:53:44.473Z,85.60
2018-04-11T01:56:13.581Z,85.40
2018-04-11T01:58:42.789Z,84.27
2018-04-11T02:01:11.916Z,87.10
2018-04-11T02:03:41.059Z,94.07
2018-04-11T02:06:10.192Z,91.57
2018-04-11T02:08:39.315Z,84.50
2018-04-11T02:11:08.465Z,81.00
2018-04-11T02:13:37.590Z,82.87
2018-04-11T02:16:06.713Z,81.63
2018-04-11T02:18:35.835Z,80.97
2018-04-11T02:21:04.972Z,80.10
2018-04-11T02:23:34.152Z,82.70
2018-04-11T02:26:03.287Z,83.60
2018-04-11T02:28:32.411Z,83.60
2018-04-11T02:31:01.556Z,87.40
2018-04-11T02:33:30.671Z,87.80
2018-04-11T02:35:59.786Z,88.13
2018-04-11T02:38:28.901Z,88.40
2018-04-11T02:40:58.027Z,85.13
2018-04-11T02:43:27.156Z,85.60
2018-04-11T02:45:56.274Z,85.90
2018-04-11T02:48:25.405Z,89.27
2018-04-11T02:50:54.521Z,83.03
2018-04-11T02:53:23.635Z,86.10
2018-04-11T02:55:52.781Z,85.50
2018-04-11T02:58:21.902Z,83.47
2018-04-11T03:00:51.112Z,83.90
2018-04-11T03:03:20.236Z,87.73
2018-04-11T03:05:49.344Z,86.13
2018-04-11T03:08:18.486Z,86.00
2018-04-11T03:10:47.592Z,82.50
2018-04-11T03:13:16.717Z,86.00
2018-04-11T03:15:45.835Z,84.90
2018-04-11T03:18:14.968Z,87.30
2018-04-11T03:20:44.126Z,86.00
2018-04-11T03:23:13.269Z,90.10
2018-04-11T03:25:42.387Z,87.53
2018-04-11T03:28:11.519Z,88.80
2018-04-11T03:30:40.651Z,87.17
2018-04-11T03:33:09.776Z,88.90
2018-04-11T03:35:38.893Z,85.30
2018-04-11T03:38:08.027Z,89.47
2018-04-11T03:40:37.140Z,86.80
2018-04-11T03:43:06.260Z,90.00
2018-04-11T03:45:35.410Z,87.70
2018-04-11T03:48:04.535Z,86.87
2018-04-11T03:50:33.660Z,89.23
2018-04-11T03:53:02.802Z,91.70
2018-04-11T03:55:31.937Z,88.67
2018-04-11T03:58:01.052Z,86.90
2018-04-11T04:00:30.165Z,90.40
2018-04-11T04:02:59.285Z,86.37
2018-04-11T04:05:28.396Z,86.77
2018-04-11T04:07:57.508Z,90.00
2018-04-11T04:10:26.628Z,85.83
2018-04-11T04:12:55.773Z,89.67
2018-04-11T04:15:30.592Z,87.13
2018-04-11T04:18:05.698Z,86.57
2018-04-11T04:20:36.605Z,88.10
2018-04-11T04:23:05.717Z,90.07
2018-04-11T04:25:34.852Z,88.87
2018-04-11T04:28:03.969Z,88.37
2018-04-11T04:30:33.108Z,93.53
2018-04-11T04:33:02.256Z,91.00
2018-04-11T04:35:31.396Z,89.47
2018-04-11T04:38:00.499Z,89.10
2018-04-11T04:40:29.621Z,91.30
2018-04-11T04:42:58.736Z,89.17
2018-04-11T04:45:27.871Z,91.40
2018-04-11T04:47:57.007Z,88.57
2018-04-11T04:50:26.119Z,89.07
2018-04-11T04:52:55.260Z,89.80
2018-04-11T04:55:24.411Z,91.33
2018-04-11T04:57:53.552Z,89.40
2018-04-11T05:00:22.679Z,87.07
2018-04-11T05:02:51.802Z,89.00
2018-04-11T05:05:20.934Z,89.40
2018-04-11T05:07:50.048Z,91.97
2018-04-11T05:10:19.157Z,93.17
2018-04-11T05:12:48.341Z,89.63
2018-04-11T05:15:17.477Z,89.00
2018-04-11T05:17:46.621Z,101.07
2018-04-11T05:20:15.757Z,94.30
2018-04-11T05:22:44.920Z,94.70
2018-04-11T05:25:14.055Z,99.70
2018-04-11T05:27:43.197Z,104.50
2018-04-11T05:30:12.319Z,100.43
2018-04-11T05:32:41.473Z,102.07
2018-04-11T05:35:10.566Z,101.90
2018-04-11T05:37:39.713Z,95.13
2018-04-11T05:40:08.833Z,94.20
2018-04-11T05:42:37.973Z,93.20
2018-04-11T05:45:07.101Z,89.50
2018-04-11T05:47:36.216Z,85.80
2018-04-11T05:50:05.370Z,86.00
2018-04-11T05:52:34.483Z,82.73
2018-04-11T05:55:03.597Z,83.20
2018-04-11T05:57:32.722Z,80.00
2018-04-11T06:00:01.861Z,82.07
2018-04-11T06:02:30.967Z,77.57
2018-04-11T06:05:00.107Z,87.83
2018-04-11T06:07:29.302Z,179.67
2018-04-11T06:09:58.452Z,164.10
2018-04-11T06:12:27.596Z,210.53
2018-04-11T06:14:56.711Z,116.73
2018-04-11T06:17:25.834Z,157.47
2018-04-11T06:19:54.977Z,238.90
2018-04-11T06:22:24.120Z,445.87
2018-04-11T06:24:53.265Z,508.63
2018-04-11T06:27:22.404Z,307.63
2018-04-11T06:29:51.524Z,399.67
2018-04-11T06:32:20.666Z,329.27
2018-04-11T06:34:49.793Z,354.03
2018-04-11T06:37:18.925Z,216.67
2018-04-11T06:39:48.050Z,265.27
2018-04-11T06:42:17.205Z,301.93
2018-04-11T06:44:46.374Z,186.73
2018-04-11T06:47:15.645Z,362.80
2018-04-11T06:49:44.810Z,265.57
2018-04-11T06:52:14.103Z,164.73
2018-04-11T06:54:43.272Z,126.17
2018-04-11T06:57:12.410Z,90.17
2018-04-11T06:59:41.516Z,78.17
2018-04-11T07:02:10.636Z,77.57
2018-04-11T07:04:39.778Z,82.67
2018-04-11T07:07:08.893Z,81.60
2018-04-11T07:09:38.085Z,106.67
2018-04-11T07:12:07.210Z,82.33
2018-04-11T07:14:36.312Z,78.67
2018-04-11T07:17:05.433Z,79.60
2018-04-11T07:22:01.660Z,79.70
2018-04-11T07:24:30.781Z,78.50
2018-04-11T07:26:59.926Z,77.70
2018-04-11T07:29:29.064Z,78.20
2018-04-11T07:31:58.200Z,78.30
2018-04-11T07:34:27.341Z,78.10
2018-04-11T07:36:56.492Z,78.23
2018-04-11T07:39:25.641Z,77.07
2018-04-11T07:41:54.782Z,77.40
2018-04-11T07:44:23.909Z,78.30
2018-04-11T07:46:53.017Z,76.37
2018-04-11T07:49:22.175Z,78.40
2018-04-11T07:51:51.329Z,74.87
2018-04-11T07:54:20.440Z,79.20
2018-04-11T07:56:49.576Z,76.47
2018-04-11T07:59:18.708Z,80.10
2018-04-11T08:01:47.843Z,77.00
2018-04-11T08:07:05.609Z,77.37
2018-04-11T08:09:34.721Z,77.63
2018-04-11T08:12:03.858Z,77.37
2018-04-11T08:14:32.986Z,76.70
2018-04-11T08:17:02.124Z,76.40
2018-04-11T08:19:31.260Z,80.50
2018-04-11T08:22:00.379Z,79.30
2018-04-11T08:24:29.525Z,75.53
2018-04-11T08:26:58.684Z,80.70
2018-04-11T08:29:27.792Z,77.80
2018-04-11T08:31:56.960Z,76.27
2018-04-11T08:34:26.107Z,77.70
2018-04-11T08:36:55.254Z,76.40
2018-04-11T08:39:24.373Z,77.00
2018-04-11T08:41:53.513Z,79.80
2018-04-11T08:44:22.652Z,77.17
2018-04-11T08:46:51.797Z,76.07
2018-04-11T08:49:20.948Z,75.40
2018-04-11T08:51:50.062Z,75.30
2018-04-11T08:54:19.180Z,75.07
2018-04-11T08:56:48.308Z,74.87
2018-04-11T08:59:17.412Z,74.87
2018-04-11T09:01:46.549Z,73.70
2018-04-11T09:04:15.690Z,73.73
2018-04-11T09:06:44.830Z,72.70
2018-04-11T09:09:13.940Z,73.30
2018-04-11T09:11:43.080Z,72.77
2018-04-11T09:14:12.213Z,73.50
2018-04-11T09:16:41.351Z,74.37
2018-04-11T09:19:10.475Z,75.17
2018-04-11T09:21:39.588Z,74.07
2018-04-11T09:24:08.711Z,72.80
2018-04-11T09:26:37.898Z,71.97
2018-04-11T09:29:07.036Z,72.00
2018-04-11T09:31:36.177Z,72.97
2018-04-11T09:34:05.299Z,71.77
2018-04-11T09:36:34.473Z,73.50
2018-04-11T09:39:03.616Z,73.67
2018-04-11T09:41:32.751Z,72.07
2018-04-11T09:44:01.894Z,70.93
2018-04-11T09:46:31.080Z,71.60
2018-04-11T09:49:00.200Z,71.47
2018-04-11T09:51:29.320Z,71.07
2018-04-11T09:53:58.475Z,70.90
2018-04-11T09:56:27.604Z,71.93
2018-04-11T09:58:56.718Z,71.27
2018-04-11T10:01:25.923Z,71.33
2018-04-11T10:03:55.064Z,71.27
2018-04-11T10:06:24.192Z,71.20
2018-04-11T10:08:53.312Z,70.70
2018-04-11T10:11:22.440Z,70.97
2018-04-11T10:13:51.584Z,71.60
2018-04-11T10:16:20.696Z,72.70
2018-04-11T10:18:49.847Z,72.20
2018-04-11T10:21:18.980Z,71.20
2018-04-11T10:23:48.091Z,72.03
2018-04-11T10:26:17.209Z,71.87
2018-04-11T10:28:46.354Z,72.00
2018-04-11T10:31:15.488Z,71.00
2018-04-11T10:33:44.720Z,71.60
2018-04-11T10:36:13.823Z,72.07
2018-04-11T10:38:42.939Z,72.70
2018-04-11T10:41:12.056Z,72.83
2018-04-11T10:43:41.176Z,72.40
2018-04-11T10:46:10.318Z,72.57
2018-04-11T10:48:39.458Z,71.87
2018-04-11T10:51:08.596Z,71.47
2018-04-11T10:53:37.743Z,73.33
2018-04-11T10:56:06.869Z,72.37
2018-04-11T10:58:35.979Z,73.83
2018-04-11T11:01:05.092Z,74.13
2018-04-11T11:03:34.205Z,72.60
2018-04-11T11:06:03.315Z,71.97
2018-04-11T11:08:32.444Z,70.93
2018-04-11T11:11:01.567Z,71.10
2018-04-11T11:13:30.700Z,72.13
2018-04-11T11:15:59.831Z,70.47
2018-04-11T11:18:28.947Z,69.97
2018-04-11T11:20:58.057Z,69.93
2018-04-11T11:23:27.171Z,70.27
2018-04-11T11:25:56.865Z,69.87
2018-04-11T11:28:25.980Z,70.67
2018-04-11T11:30:55.097Z,71.30
2018-04-11T11:33:24.214Z,70.07
2018-04-11T11:35:53.387Z,70.20
2018-04-11T11:38:22.527Z,70.07
2018-04-11T11:40:51.634Z,68.80
2018-04-11T11:43:20.752Z,69.63
2018-04-11T11:45:49.879Z,69.57
2018-04-11T11:48:19.026Z,69.27
2018-04-11T11:50:48.136Z,69.07
2018-04-11T11:53:17.285Z,70.23
2018-04-11T11:55:46.423Z,70.17
2018-04-11T11:58:15.565Z,71.13
2018-04-11T12:00:44.676Z,68.57
2018-04-11T12:03:13.808Z,70.87
2018-04-11T12:05:42.921Z,69.50
2018-04-11T12:08:12.052Z,70.17
2018-04-11T12:10:41.168Z,68.47
2018-04-11T12:13:10.329Z,70.43
2018-04-11T12:15:39.445Z,71.70
2018-04-11T12:18:08.583Z,70.90
2018-04-11T12:20:37.697Z,72.13
2018-04-11T12:23:06.844Z,71.10
2018-04-11T12:25:36.001Z,71.83
2018-04-11T12:28:05.107Z,71.80
2018-04-11T12:30:34.252Z,71.60
2018-04-11T12:33:03.357Z,75.30
2018-04-11T12:35:32.501Z,73.00
2018-04-11T12:38:01.602Z,73.27
2018-04-11T12:40:30.720Z,70.47
2018-04-11T12:42:59.867Z,71.67
2018-04-11T12:45:28.999Z,71.90
2018-04-11T12:47:58.137Z,71.00
2018-04-11T12:50:27.248Z,72.43
2018-04-11T12:52:56.394Z,73.07
2018-04-11T12:55:25.524Z,73.30
2018-04-11T12:57:54.661Z,75.67
2018-04-11T13:00:23.791Z,74.20
2018-04-11T13:02:52.921Z,72.97
2018-04-11T13:05:22.059Z,73.13
2018-04-11T13:07:51.165Z,74.07
2018-04-11T13:10:20.303Z,74.00
2018-04-11T13:12:49.425Z,75.67
2018-04-11T13:15:18.533Z,72.97
2018-04-11T13:17:47.677Z,71.67
2018-04-11T13:20:16.820Z,70.83
2018-04-11T13:22:45.923Z,74.80
2018-04-11T13:25:15.035Z,73.43
2018-04-11T13:27:44.681Z,77.37
2018-04-11T13:30:13.848Z,74.40
2018-04-11T13:32:42.977Z,74.57
2018-04-11T13:35:12.084Z,74.20
2018-04-11T13:37:41.196Z,73.70
2018-04-11T13:40:10.358Z,73.70
2018-04-11T13:42:39.483Z,75.37
2018-04-11T13:45:08.594Z,72.63
2018-04-11T13:47:37.732Z,74.77
2018-04-11T13:50:06.848Z,78.50
2018-04-11T13:52:35.988Z,73.60
2018-04-11T13:55:05.124Z,72.60
2018-04-11T13:57:34.245Z,71.40
2018-04-11T14:00:03.359Z,71.37
2018-04-11T14:02:32.533Z,71.80
2018-04-11T14:05:01.630Z,70.77
2018-04-11T14:07:30.737Z,70.90
2018-04-11T14:09:59.865Z,73.57
2018-04-11T14:12:28.987Z,72.70
2018-04-11T14:14:58.116Z,71.07
2018-04-11T14:17:27.216Z,71.43
2018-04-11T14:19:56.331Z,72.13
2018-04-11T14:22:25.480Z,74.90
2018-04-11T14:24:54.607Z,72.33
2018-04-11T14:27:23.734Z,73.30
2018-04-11T14:29:52.849Z,79.00
2018-04-11T14:32:21.956Z,71.40
2018-04-11T14:34:51.102Z,71.37
2018-04-11T14:37:20.228Z,73.83
2018-04-11T14:39:49.325Z,72.10
2018-04-11T14:42:18.456Z,72.97
2018-04-11T14:44:47.573Z,92.93
2018-04-11T14:47:16.701Z,73.40
2018-04-11T14:49:45.843Z,72.57
2018-04-11T14:52:14.977Z,73.80
2018-04-11T14:54:44.104Z,74.17
2018-04-11T14:57:13.245Z,73.13
2018-04-11T14:59:42.445Z,73.20
2018-04-11T15:02:11.548Z,73.00
2018-04-11T15:04:40.691Z,72.83
2018-04-11T15:07:09.811Z,75.67
2018-04-11T15:09:38.945Z,79.00
2018-04-11T15:12:08.083Z,74.53
2018-04-11T15:14:37.202Z,75.80
2018-04-11T15:17:06.331Z,74.00
2018-04-11T15:19:35.576Z,74.10
2018-04-11T15:22:04.687Z,75.00
2018-04-11T15:24:33.823Z,76.83
2018-04-11T15:27:02.937Z,75.17
2018-04-11T15:29:32.068Z,76.37
2018-04-11T15:32:01.215Z,74.80
2018-04-11T15:34:30.345Z,74.37
2018-04-11T15:36:59.481Z,73.03
2018-04-11T15:39:28.598Z,76.50
2018-04-11T15:41:57.749Z,74.27
2018-04-11T15:44:26.861Z,79.10
2018-04-11T15:46:56.023Z,74.50
2018-04-11T15:49:25.136Z,76.70
2018-04-11T15:51:54.288Z,77.33
2018-04-11T15:54:23.409Z,74.17
2018-04-11T15:56:52.527Z,74.97
2018-04-11T15:59:21.657Z,75.40
2018-04-11T16:01:50.776Z,75.57
2018-04-11T16:04:19.960Z,75.33
2018-04-11T16:06:49.112Z,74.00
2018-04-11T16:09:18.249Z,75.63
2018-04-11T16:11:47.372Z,75.30
2018-04-11T16:14:16.518Z,75.17
2018-04-11T16:16:45.648Z,74.97
2018-04-11T16:19:14.839Z,74.30
2018-04-11T16:21:43.979Z,74.20
2018-04-11T16:24:13.117Z,76.33
2018-04-11T16:26:42.225Z,73.77
2018-04-11T16:29:11.362Z,73.97
2018-04-11T16:31:40.468Z,75.70
2018-04-11T16:34:09.651Z,74.07
2018-04-11T16:36:38.769Z,75.37
2018-04-11T16:39:07.906Z,73.80
2018-04-11T16:41:37.015Z,75.47
2018-04-11T16:44:06.145Z,73.97
2018-04-11T16:46:35.251Z,76.50
2018-04-11T16:49:04.440Z,75.20
2018-04-11T16:51:33.568Z,76.67
2018-04-11T16:54:02.725Z,76.10
2018-04-11T16:56:31.868Z,75.63
2018-04-11T16:59:00.989Z,74.90
2018-04-11T17:01:30.149Z,77.20
2018-04-11T17:03:59.267Z,73.63
2018-04-11T17:06:28.417Z,74.30
2018-04-11T17:08:57.578Z,79.33
2018-04-11T17:11:26.701Z,77.23
2018-04-11T17:13:55.884Z,73.70
2018-04-11T17:16:25.125Z,75.63
2018-04-11T17:18:54.271Z,73.83
2018-04-11T17:21:29.148Z,74.90
2018-04-11T17:24:04.241Z,75.87
2018-04-11T17:26:39.207Z,74.63
2018-04-11T17:29:14.209Z,74.50
2018-04-11T17:31:43.333Z,73.50
2018-04-11T17:34:12.486Z,73.80
2018-04-11T17:36:41.620Z,74.40
2018-04-11T17:39:10.760Z,73.37
2018-04-11T17:41:39.905Z,72.90
2018-04-11T17:44:09.022Z,74.07
2018-04-11T17:46:38.167Z,73.60
2018-04-11T17:49:07.308Z,74.47
2018-04-11T17:51:36.437Z,74.17
2018-04-11T17:54:05.537Z,73.20
2018-04-11T17:56:34.652Z,74.60
2018-04-11T17:59:03.768Z,74.40
2018-04-11T18:01:32.884Z,73.40
2018-04-11T18:04:02.060Z,75.37
2018-04-11T18:06:31.136Z,75.40
2018-04-11T18:09:00.301Z,73.80
2018-04-11T18:11:29.430Z,74.50
2018-04-11T18:13:58.567Z,73.67
2018-04-11T18:16:27.692Z,73.97
2018-04-11T18:18:56.860Z,74.50
2018-04-11T18:21:26.041Z,75.27
2018-04-11T18:23:55.196Z,75.97
2018-04-11T18:26:24.323Z,76.27
2018-04-11T18:28:53.452Z,75.87
2018-04-11T18:31:22.563Z,77.30
2018-04-11T18:33:51.696Z,75.87
2018-04-11T18:36:20.811Z,76.17
2018-04-11T18:38:49.953Z,83.90
2018-04-11T18:41:19.060Z,75.90
2018-04-11T18:43:48.203Z,75.93
2018-04-11T18:46:17.348Z,77.20
2018-04-11T18:48:46.456Z,76.93
2018-04-11T18:51:15.573Z,76.17
2018-04-11T18:53:44.704Z,80.17
2018-04-11T18:56:13.817Z,76.90
2018-04-11T18:58:42.931Z,78.30
2018-04-11T19:01:12.049Z,81.53
2018-04-11T19:03:41.196Z,78.00
2018-04-11T19:06:10.320Z,77.97
2018-04-11T19:08:39.451Z,77.00
2018-04-11T19:11:08.609Z,79.37
2018-04-11T19:13:37.750Z,84.33
2018-04-11T19:16:06.906Z,79.43
2018-04-11T19:18:36.041Z,77.67
2018-04-11T19:21:05.148Z,82.37
2018-04-11T19:23:34.285Z,79.97
2018-04-11T19:26:03.429Z,80.40
2018-04-11T19:28:32.542Z,81.10
2018-04-11T19:31:01.657Z,80.77
2018-04-11T19:33:30.904Z,80.47
2018-04-11T19:36:00.056Z,87.20
2018-04-11T19:38:29.161Z,79.20
2018-04-11T19:40:58.300Z,79.33
2018-04-11T19:43:27.417Z,79.60
2018-04-11T19:45:56.572Z,82.90
2018-04-11T19:48:25.714Z,80.00
2018-04-11T19:50:54.839Z,81.27
2018-04-11T19:53:23.960Z,79.43
2018-04-11T19:55:53.109Z,80.80
2018-04-11T19:58:22.204Z,80.00
2018-04-11T20:00:51.338Z,81.63
2018-04-11T20:03:20.464Z,80.10
2018-04-11T20:05:49.571Z,83.93
2018-04-11T20:08:18.706Z,81.60
2018-04-11T20:10:47.800Z,81.37
2018-04-11T20:13:16.931Z,79.30
2018-04-11T20:15:46.048Z,81.30
2018-04-11T20:18:15.236Z,81.97
2018-04-11T20:20:44.332Z,80.83
2018-04-11T20:23:13.464Z,81.43
2018-04-11T20:25:42.601Z,81.50
2018-04-11T20:28:11.749Z,80.27
2018-04-11T20:30:40.910Z,82.00
2018-04-11T20:33:10.041Z,83.00
2018-04-11T20:35:39.161Z,85.30
2018-04-11T20:38:08.316Z,83.50
2018-04-11T20:40:37.440Z,85.10
2018-04-11T20:43:06.581Z,80.87
2018-04-11T20:45:35.731Z,79.17
2018-04-11T20:48:04.871Z,80.60
2018-04-11T20:50:34.019Z,81.67
2018-04-11T20:53:03.133Z,80.17
2018-04-11T20:55:32.254Z,80.17
2018-04-11T20:58:01.365Z,81.13
2018-04-11T21:00:30.521Z,81.40
2018-04-11T21:02:59.883Z,78.67
2018-04-11T21:05:28.991Z,79.17
2018-04-11T21:07:58.142Z,81.40
2018-04-11T21:10:27.265Z,79.67
2018-04-11T21:12:56.391Z,79.37
2018-04-11T21:15:25.548Z,79.33
2018-04-11T21:17:54.685Z,82.70
2018-04-11T21:20:23.828Z,80.07
2018-04-11T21:22:52.965Z,80.70
2018-04-11T21:25:22.101Z,80.17
2018-04-11T21:27:51.249Z,78.87
2018-04-11T21:30:20.383Z,83.00
2018-04-11T21:32:49.528Z,78.10
2018-04-11T21:35:18.656Z,80.00
2018-04-11T21:37:47.857Z,79.77
2018-04-11T21:40:16.989Z,79.17
2018-04-11T21:42:46.096Z,79.20
2018-04-11T21:45:15.247Z,80.43
2018-04-11T21:47:44.388Z,78.63
2018-04-11T21:50:13.496Z,79.57
2018-04-11T21:52:42.633Z,79.20
2018-04-11T21:55:11.784Z,78.37
2018-04-11T21:57:40.892Z,85.40
2018-04-11T22:00:10.060Z,82.77
2018-04-11T22:02:39.201Z,82.07
2018-04-11T22:05:08.349Z,80.43
2018-04-11T22:07:37.468Z,80.60
2018-04-11T22:10:06.624Z,80.03
2018-04-11T22:12:35.875Z,89.63
2018-04-11T22:15:05.018Z,79.77
2018-04-11T22:17:34.121Z,80.83
2018-04-11T22:20:03.264Z,81.27
2018-04-11T22:22:32.396Z,80.07
2018-04-11T22:25:01.644Z,78.80
2018-04-11T22:27:30.842Z,80.63
2018-04-11T22:29:59.954Z,80.07
2018-04-11T22:32:29.075Z,81.27
2018-04-11T22:34:58.221Z,78.77
2018-04-11T22:37:27.338Z,85.10
2018-04-11T22:39:56.457Z,80.13
2018-04-11T22:42:25.717Z,79.97
2018-04-11T22:44:54.819Z,80.00
2018-04-11T22:47:23.944Z,80.57
2018-04-11T22:49:53.087Z,82.57
2018-04-11T22:52:22.204Z,80.77
2018-04-11T22:54:51.320Z,80.57
2018-04-11T22:57:20.432Z,78.90
2018-04-11T22:59:49.589Z,79.70
2018-04-11T23:02:18.702Z,86.20
2018-04-11T23:04:47.844Z,80.37
2018-04-11T23:07:16.960Z,79.70
2018-04-11T23:09:46.088Z,81.07
2018-04-11T23:12:15.209Z,82.30
2018-04-11T23:14:44.361Z,82.17
2018-04-11T23:17:13.477Z,80.03
2018-04-11T23:19:42.624Z,81.57
2018-04-11T23:22:11.757Z,81.60
2018-04-11T23:24:40.868Z,82.17
2018-04-11T23:27:10.006Z,83.20
2018-04-11T23:29:39.144Z,82.47
2018-04-11T23:32:08.266Z,80.70
2018-04-11T23:34:37.396Z,80.47
2018-04-11T23:37:06.529Z,82.10
2018-04-11T23:39:35.666Z,81.30
2018-04-11T23:42:04.787Z,82.93
2018-04-11T23:44:34.049Z,82.40
2018-04-11T23:47:03.189Z,80.90
2018-04-11T23:49:32.333Z,81.27
2018-04-11T23:52:01.452Z,82.37
2018-04-11T23:54:30.568Z,85.23
2018-04-11T23:56:59.731Z,82.27
2018-04-11T23:59:28.840Z,82.77
